Hlavní strana
METAR-TAF:

METAR-TAF

Letiště :

Paros, Řecko

zeměpisná šířka: 37-01-15N, zeměpisná délka: 025-06-46E, výška: 38 m

Aktuální stav počasí

Zpráva byla vytvořena před 45 minutami, v 10:50 UTC
Západojihozápadní vítr 10 kt
Teplota 17°C
Vlhkost vzduchu 63%
Tlak 1015 hPa
Viditelnost 10 km a více
Skoro jasno ve výšce 3000 ft

METAR: LGPA 291050Z 24010KT 9999 FEW030 17/10 Q1015

Čas: 13:35 (11:35 UTC)


TAF: chybějící

Stav a předpovědi počasí z více než 4 000 letišť (zprávy METAR a TAF).

Červené a žluté tečky na mapě představují dostupné meteorologické stanice.

Když kurzor umístíte na tečku, zobrazí se název stanice.

Pak kliknutím zobrazíte stav a předpověď počasí.

Chcete-li změnit mapu, kliknutím na zelené tlačítko se znaménkem +mapu přiblížíte, kliknutím na zelené tlačítko se znaménkem – mapu oddálíte a kliknutím na zelené šipky přejdete na sousední mapy.


METAR-TAF: